createdAt,value
2023-01-11T00:01:14.234Z,101062.72
2023-01-11T00:03:43.001Z,101066.84
2023-01-11T00:06:12.204Z,101063.06
2023-01-11T00:08:40.292Z,101058.41
2023-01-11T00:11:13.903Z,101056.50
2023-01-11T00:13:43.845Z,101053.88
2023-01-11T00:16:12.653Z,101049.34
2023-01-11T00:18:41.338Z,101044.09
2023-01-11T00:21:11.839Z,101054.75
2023-01-11T00:23:39.900Z,101045.59
2023-01-11T00:26:10.983Z,101041.25
2023-01-11T00:28:39.140Z,101033.25
2023-01-11T00:31:09.186Z,101044.63
2023-01-11T00:33:37.335Z,101038.00
2023-01-11T00:36:05.765Z,101039.69
2023-01-11T00:38:51.377Z,101030.09
2023-01-11T00:41:37.450Z,101028.63
2023-01-11T00:44:24.802Z,101033.38
2023-01-11T00:47:12.594Z,101024.94
2023-01-11T00:49:41.435Z,101021.78
2023-01-11T00:52:10.221Z,101015.69
2023-01-11T00:54:38.532Z,101009.13
2023-01-11T00:57:07.946Z,101009.47
2023-01-11T00:59:36.356Z,101005.56
2023-01-11T01:02:06.211Z,101007.38
2023-01-11T01:04:34.166Z,100997.47
2023-01-11T01:07:02.483Z,100999.88
2023-01-11T01:09:30.760Z,100995.34
2023-01-11T01:11:58.746Z,100991.16
2023-01-11T01:14:25.999Z,100988.00
2023-01-11T01:16:54.730Z,100976.81
2023-01-11T01:19:27.871Z,100983.78
2023-01-11T01:21:56.615Z,100981.69
2023-01-11T01:24:25.216Z,100969.47
2023-01-11T01:26:53.719Z,100978.28
2023-01-11T01:29:22.016Z,100982.53
2023-01-11T01:31:50.179Z,100973.97
2023-01-11T01:34:18.410Z,100971.56
2023-01-11T01:36:48.085Z,100964.41
2023-01-11T01:39:16.097Z,100965.06
2023-01-11T01:41:43.994Z,100958.94
2023-01-11T01:44:54.378Z,100957.91
2023-01-11T01:47:24.621Z,100965.47
2023-01-11T01:49:52.997Z,100959.78
2023-01-11T01:52:28.983Z,100953.75
2023-01-11T01:55:01.560Z,100946.72
2023-01-11T01:57:32.692Z,100936.91
2023-01-11T02:00:02.727Z,100941.78
2023-01-11T02:02:35.359Z,100932.59
2023-01-11T02:05:04.584Z,100935.00
2023-01-11T02:07:36.551Z,100929.66
2023-01-11T02:10:11.633Z,100913.41
2023-01-11T02:12:42.357Z,100911.75
2023-01-11T02:15:15.629Z,100897.19
2023-01-11T02:17:43.791Z,100895.50
2023-01-11T02:20:51.684Z,100895.50
2023-01-11T02:24:04.379Z,100884.84
2023-01-11T02:27:00.466Z,100882.22
2023-01-11T02:29:36.148Z,100882.19
2023-01-11T02:32:14.315Z,100879.28
2023-01-11T02:34:46.855Z,100872.03
2023-01-11T02:37:23.163Z,100874.56
2023-01-11T02:40:01.154Z,100862.63
2023-01-11T02:42:56.733Z,100854.97
2023-01-11T02:45:36.762Z,100853.28
2023-01-11T02:48:12.382Z,100851.75
2023-01-11T02:50:44.173Z,100840.59
2023-01-11T02:53:17.549Z,100843.97
2023-01-11T02:55:48.729Z,100832.69
2023-01-11T02:58:17.968Z,100844.69
2023-01-11T03:00:48.094Z,100837.28
2023-01-11T03:03:17.864Z,100845.81
2023-01-11T03:05:50.303Z,100830.31
2023-01-11T03:08:30.181Z,100828.88
2023-01-11T03:11:04.038Z,100826.00
2023-01-11T03:13:41.572Z,100822.81
2023-01-11T03:16:23.080Z,100814.31
2023-01-11T03:18:55.335Z,100821.75
2023-01-11T03:21:32.149Z,100817.66
2023-01-11T03:24:06.733Z,100810.00
2023-01-11T03:26:41.500Z,100799.22
2023-01-11T03:29:12.471Z,100798.38
2023-01-11T03:31:49.448Z,100795.16
2023-01-11T03:34:20.373Z,100793.00
2023-01-11T03:36:51.855Z,100792.56
2023-01-11T03:39:24.899Z,100788.59
2023-01-11T03:41:57.285Z,100777.00
2023-01-11T03:44:26.713Z,100775.75
2023-01-11T03:46:58.885Z,100780.13
2023-01-11T03:49:32.061Z,100769.69
2023-01-11T03:52:01.657Z,100780.00
2023-01-11T03:54:31.398Z,100776.75
2023-01-11T03:57:04.383Z,100764.78
2023-01-11T03:59:34.375Z,100760.94
2023-01-11T04:02:03.805Z,100763.34
2023-01-11T04:04:31.773Z,100764.19
2023-01-11T04:06:59.767Z,100756.88
2023-01-11T04:09:28.346Z,100754.38
2023-01-11T04:11:56.467Z,100760.22
2023-01-11T04:14:24.714Z,100757.84
2023-01-11T04:16:52.722Z,100757.97
2023-01-11T04:19:22.642Z,100753.31
2023-01-11T04:21:52.062Z,100751.03
2023-01-11T04:24:21.622Z,100747.78
2023-01-11T04:26:50.107Z,100748.03
2023-01-11T04:29:18.232Z,100751.03
2023-01-11T04:31:46.975Z,100735.56
2023-01-11T04:34:15.722Z,100739.91
2023-01-11T04:36:45.590Z,100741.44
2023-01-11T04:39:14.037Z,100733.91
2023-01-11T04:42:00.943Z,100736.03
2023-01-11T04:44:28.972Z,100721.56
2023-01-11T04:46:58.344Z,100707.03
2023-01-11T04:49:26.226Z,100706.31
2023-01-11T04:51:56.209Z,100708.38
2023-01-11T04:54:24.101Z,100711.13
2023-01-11T04:56:53.000Z,100700.22
2023-01-11T04:59:22.223Z,100700.09
2023-01-11T05:01:51.656Z,100711.25
2023-01-11T05:04:21.545Z,100706.69
2023-01-11T05:06:51.050Z,100703.66
2023-01-11T05:09:20.393Z,100705.13
2023-01-11T05:11:48.425Z,100704.41
2023-01-11T05:14:17.325Z,100696.16
2023-01-11T05:16:45.680Z,100692.88
2023-01-11T05:19:14.227Z,100684.63
2023-01-11T05:21:42.807Z,100682.72
2023-01-11T05:24:13.782Z,100683.19
2023-01-11T05:26:45.343Z,100674.44
2023-01-11T05:29:16.514Z,100671.22
2023-01-11T05:31:44.735Z,100667.03
2023-01-11T05:34:14.213Z,100661.50
2023-01-11T05:36:42.873Z,100655.72
2023-01-11T05:39:12.298Z,100670.63
2023-01-11T05:41:40.556Z,100667.34
2023-01-11T05:44:30.155Z,100656.94
2023-01-11T05:46:58.742Z,100662.78
2023-01-11T05:49:27.430Z,100654.16
2023-01-11T05:51:55.706Z,100647.81
2023-01-11T05:54:23.815Z,100651.03
2023-01-11T05:56:51.928Z,100649.25
2023-01-11T05:59:22.877Z,100652.84
2023-01-11T06:01:51.095Z,100641.81
2023-01-11T06:04:19.412Z,100643.13
2023-01-11T06:06:47.378Z,100647.81
2023-01-11T06:09:15.599Z,100641.31
2023-01-11T06:11:43.845Z,100638.22
2023-01-11T06:14:12.857Z,100636.31
2023-01-11T06:16:42.393Z,100630.78
2023-01-11T06:19:11.495Z,100633.91
2023-01-11T06:21:39.783Z,100618.81
2023-01-11T06:24:08.737Z,100624.22
2023-01-11T06:26:38.188Z,100629.47
2023-01-11T06:29:06.563Z,100624.00
2023-01-11T06:31:35.103Z,100631.78
2023-01-11T06:34:04.522Z,100626.00
2023-01-11T06:36:32.391Z,100625.41
2023-01-11T06:39:00.257Z,100625.88
2023-01-11T06:41:30.024Z,100621.91
2023-01-11T06:43:58.145Z,100616.41
2023-01-11T06:46:29.107Z,100611.59
2023-01-11T06:48:58.760Z,100615.56
2023-01-11T06:51:28.562Z,100622.16
2023-01-11T06:53:57.004Z,100626.00
2023-01-11T06:56:25.694Z,100628.13
2023-01-11T06:58:55.176Z,100626.84
2023-01-11T07:01:24.940Z,100628.84
2023-01-11T07:03:53.024Z,100622.66
2023-01-11T07:06:21.678Z,100634.38
2023-01-11T07:08:54.144Z,100638.47
2023-01-11T07:11:22.190Z,100646.59
2023-01-11T07:13:51.126Z,100651.16
2023-01-11T07:16:19.039Z,100651.41
2023-01-11T07:19:23.471Z,100646.22
2023-01-11T07:21:52.612Z,100643.56
2023-01-11T07:24:24.286Z,100651.03
2023-01-11T07:26:53.300Z,100654.25
2023-01-11T07:29:21.194Z,100659.16
2023-01-11T07:31:50.183Z,100649.56
2023-01-11T07:34:19.521Z,100651.19
2023-01-11T07:36:47.426Z,100651.75
2023-01-11T07:39:16.465Z,100650.91
2023-01-11T07:42:15.313Z,100651.75
2023-01-11T07:44:43.389Z,100650.53
2023-01-11T07:47:11.276Z,100642.03
2023-01-11T07:49:39.819Z,100644.06
2023-01-11T07:52:08.256Z,100648.00
2023-01-11T07:54:36.292Z,100637.94
2023-01-11T07:57:06.681Z,100643.59
2023-01-11T07:59:37.258Z,100639.59
2023-01-11T08:02:06.103Z,100649.44
2023-01-11T08:04:34.263Z,100640.09
2023-01-11T08:07:02.678Z,100648.84
2023-01-11T08:09:31.691Z,100635.03
2023-01-11T08:12:17.198Z,100638.31
2023-01-11T08:14:46.720Z,100633.22
2023-01-11T08:17:17.392Z,100637.66
2023-01-11T08:19:45.403Z,100629.91
2023-01-11T08:22:13.395Z,100631.50
2023-01-11T08:24:42.110Z,100624.44
2023-01-11T08:27:10.509Z,100620.25
2023-01-11T08:29:40.130Z,100618.72
2023-01-11T08:32:09.548Z,100620.31
2023-01-11T08:34:37.913Z,100620.94
2023-01-11T08:37:06.198Z,100617.19
2023-01-11T08:39:34.472Z,100619.97
2023-01-11T08:42:03.560Z,100615.31
2023-01-11T08:44:34.648Z,100622.88
2023-01-11T08:47:04.767Z,100619.28
2023-01-11T08:49:34.137Z,100616.41
2023-01-11T08:52:02.193Z,100610.19
2023-01-11T08:54:30.361Z,100611.88
2023-01-11T08:56:58.379Z,100618.56
2023-01-11T08:59:26.756Z,100616.50
2023-01-11T09:01:55.809Z,100607.19
2023-01-11T09:04:25.787Z,100607.81
2023-01-11T09:06:56.563Z,100609.97
2023-01-11T09:09:24.898Z,100607.81
2023-01-11T09:11:56.979Z,100611.66
2023-01-11T09:14:27.620Z,100611.75
2023-01-11T09:16:56.460Z,100614.09
2023-01-11T09:19:25.406Z,100608.47
2023-01-11T09:21:58.104Z,100602.47
2023-01-11T09:24:26.155Z,100599.00
2023-01-11T09:26:55.166Z,100597.34
2023-01-11T09:29:23.348Z,100592.53
2023-01-11T09:31:52.097Z,100592.34
2023-01-11T09:34:21.083Z,100597.94
2023-01-11T09:36:50.551Z,100593.47
2023-01-11T09:39:23.393Z,100598.75
2023-01-11T09:42:12.968Z,100591.94
2023-01-11T09:44:50.890Z,100594.59
2023-01-11T09:47:30.168Z,100585.94
2023-01-11T09:50:00.646Z,100585.69
2023-01-11T09:52:33.150Z,100581.63
2023-01-11T09:55:04.137Z,100584.66
2023-01-11T09:57:44.991Z,100591.88
2023-01-11T10:00:19.755Z,100577.91
2023-01-11T10:03:00.097Z,100594.81
2023-01-11T10:05:42.192Z,100580.56
2023-01-11T10:18:30.326Z,100564.31
2023-01-11T10:18:36.990Z,100563.69
2023-01-11T10:20:24.653Z,100557.63
2023-01-11T10:22:57.815Z,100550.22
2023-01-11T10:25:33.853Z,100556.59
2023-01-11T10:28:10.011Z,100554.84
2023-01-11T10:30:55.912Z,100549.06
2023-01-11T10:33:46.522Z,100544.88
2023-01-11T10:36:34.539Z,100546.63
2023-01-11T10:39:17.557Z,100543.28
2023-01-11T10:41:55.032Z,100541.34
2023-01-11T10:44:31.407Z,100542.22
2023-01-11T10:47:00.893Z,100541.53
2023-01-11T10:49:43.732Z,100542.75
2023-01-11T10:52:22.651Z,100542.50
2023-01-11T10:54:54.920Z,100532.41
2023-01-11T10:57:35.595Z,100537.16
2023-01-11T11:00:15.862Z,100532.03
2023-01-11T11:02:56.469Z,100531.34
2023-01-11T11:05:33.070Z,100522.91
2023-01-11T11:08:07.645Z,100513.66
2023-01-11T11:10:45.098Z,100516.19
2023-01-11T11:13:16.653Z,100510.06
2023-01-11T11:15:55.410Z,100505.19
2023-01-11T11:18:25.193Z,100503.72
2023-01-11T11:20:53.488Z,100506.69
2023-01-11T11:23:26.030Z,100505.31
2023-01-11T11:25:57.988Z,100498.16
2023-01-11T11:28:28.575Z,100497.25
2023-01-11T11:30:58.842Z,100496.50
2023-01-11T11:33:30.390Z,100490.88
2023-01-11T11:36:01.265Z,100500.88
2023-01-11T11:38:30.981Z,100491.44
2023-01-11T11:41:00.577Z,100482.81
2023-01-11T11:43:29.264Z,100485.56
2023-01-11T11:46:01.163Z,100484.47
2023-01-11T11:48:31.253Z,100485.03
2023-01-11T11:51:03.306Z,100490.72
2023-01-11T11:53:38.601Z,100483.63
2023-01-11T11:56:17.156Z,100481.25
2023-01-11T11:58:45.992Z,100483.75
2023-01-11T12:01:29.434Z,100473.06
2023-01-11T12:04:00.703Z,100473.91
2023-01-11T12:06:30.735Z,100466.59
2023-01-11T12:09:02.036Z,100462.72
2023-01-11T12:11:34.971Z,100460.94
2023-01-11T12:14:07.373Z,100456.75
2023-01-11T12:16:41.433Z,100454.28
2023-01-11T12:19:27.765Z,100447.91
2023-01-11T12:22:10.922Z,100441.34
2023-01-11T12:24:42.990Z,100442.34
2023-01-11T12:27:20.097Z,100438.03
2023-01-11T12:29:59.874Z,100431.22
2023-01-11T12:33:13.871Z,100438.03
2023-01-11T12:35:50.752Z,100429.00
2023-01-11T12:38:24.495Z,100427.03
2023-01-11T12:41:06.437Z,100439.47
2023-01-11T12:43:47.072Z,100429.41
2023-01-11T12:46:22.671Z,100431.53
2023-01-11T12:49:12.783Z,100432.06
2023-01-11T12:51:55.475Z,100419.97
2023-01-11T12:54:36.724Z,100427.34
2023-01-11T12:57:13.430Z,100418.19
2023-01-11T12:59:55.967Z,100414.84
2023-01-11T13:02:44.831Z,100403.84
2023-01-11T13:05:24.574Z,100396.34
2023-01-11T13:08:02.432Z,100400.50
2023-01-11T13:10:39.871Z,100409.56
2023-01-11T13:13:13.720Z,100404.25
2023-01-11T13:15:48.954Z,100407.19
2023-01-11T13:18:27.512Z,100392.72
2023-01-11T13:21:01.788Z,100401.50
2023-01-11T13:23:39.689Z,100404.16
2023-01-11T13:26:16.595Z,100407.91
2023-01-11T13:28:46.054Z,100402.59
2023-01-11T13:31:15.337Z,100405.41
2023-01-11T13:33:47.400Z,100409.41
2023-01-11T13:36:23.616Z,100403.44
2023-01-11T13:38:57.734Z,100413.88
2023-01-11T13:41:29.732Z,100404.44
2023-01-11T13:44:00.308Z,100415.84
2023-01-11T13:46:41.053Z,100416.25
2023-01-11T13:49:18.368Z,100414.31
2023-01-11T13:51:51.251Z,100409.56
2023-01-11T13:54:25.342Z,100413.47
2023-01-11T13:56:57.248Z,100409.56
2023-01-11T13:59:32.934Z,100405.13
2023-01-11T14:02:05.728Z,100416.81
2023-01-11T14:04:40.972Z,100414.84
2023-01-11T14:07:15.304Z,100420.13
2023-01-11T14:10:03.595Z,100417.50
2023-01-11T14:12:43.797Z,100426.44
2023-01-11T14:15:21.079Z,100423.50
2023-01-11T14:18:05.716Z,100424.63
2023-01-11T14:20:40.771Z,100426.00
2023-01-11T14:23:12.519Z,100424.50
2023-01-11T14:25:53.271Z,100429.63
2023-01-11T14:28:47.150Z,100428.81
2023-01-11T14:31:26.330Z,100424.91
2023-01-11T14:34:24.865Z,100436.31
2023-01-11T14:37:15.469Z,100430.88
2023-01-11T14:40:03.387Z,100428.09
2023-01-11T14:42:51.769Z,100429.09
2023-01-11T14:45:25.474Z,100434.38
2023-01-11T14:48:04.362Z,100427.94
2023-01-11T14:50:42.552Z,100432.41
2023-01-11T14:53:13.725Z,100444.50
2023-01-11T14:55:46.614Z,100434.34
2023-01-11T14:58:27.172Z,100439.38
2023-01-11T15:01:11.348Z,100435.19
2023-01-11T15:04:03.947Z,100430.47
2023-01-11T15:06:34.466Z,100434.09
2023-01-11T15:09:02.922Z,100432.13
2023-01-11T15:11:36.639Z,100437.97
2023-01-11T15:14:24.138Z,100438.53
2023-01-11T15:17:13.145Z,100438.94
2023-01-11T15:19:43.972Z,100446.34
2023-01-11T15:22:25.179Z,100451.75
2023-01-11T15:24:58.819Z,100447.03
2023-01-11T15:27:29.469Z,100453.69
2023-01-11T15:29:59.252Z,100457.47
2023-01-11T15:32:31.149Z,100449.97
2023-01-11T15:35:33.803Z,100459.00
2023-01-11T15:38:14.450Z,100460.25
2023-01-11T15:40:47.662Z,100458.00
2023-01-11T15:43:46.325Z,100463.44
2023-01-11T15:46:55.746Z,100460.09
2023-01-11T15:49:49.719Z,100462.19
2023-01-11T15:52:50.190Z,100480.59
2023-01-11T15:56:03.901Z,100459.53
2023-01-11T15:58:44.480Z,100477.09
2023-01-11T16:01:26.572Z,100483.50
2023-01-11T16:04:00.497Z,100479.47
2023-01-11T16:06:34.728Z,100489.91
2023-01-11T16:09:12.900Z,100490.06
2023-01-11T16:11:49.413Z,100497.44
2023-01-11T16:14:48.431Z,100504.13
2023-01-11T16:17:21.731Z,100513.03
2023-01-11T16:19:55.230Z,100510.13
2023-01-11T16:22:26.499Z,100514.84
2023-01-11T16:24:58.855Z,100515.69
2023-01-11T16:27:29.686Z,100524.72
2023-01-11T16:29:58.185Z,100529.34
2023-01-11T16:32:32.688Z,100533.78
2023-01-11T16:35:01.933Z,100524.84
2023-01-11T16:37:34.617Z,100527.38
2023-01-11T16:40:07.807Z,100526.66
2023-01-11T16:42:40.941Z,100540.47
2023-01-11T16:45:15.646Z,100543.97
2023-01-11T16:48:03.721Z,100544.38
2023-01-11T16:50:35.828Z,100546.03
2023-01-11T16:53:06.109Z,100554.13
2023-01-11T16:55:36.910Z,100555.41
2023-01-11T16:58:08.180Z,100560.28
2023-01-11T17:00:38.367Z,100561.50
2023-01-11T17:03:32.447Z,100571.69
2023-01-11T17:06:19.577Z,100567.78
2023-01-11T17:08:50.111Z,100571.69
2023-01-11T17:11:25.545Z,100565.28
2023-01-11T17:14:19.364Z,100566.66
2023-01-11T17:16:50.278Z,100573.63
2023-01-11T17:19:21.803Z,100572.78
2023-01-11T17:21:52.076Z,100582.28
2023-01-11T17:24:25.731Z,100583.66
2023-01-11T17:26:55.521Z,100582.53
2023-01-11T17:29:29.202Z,100573.06
2023-01-11T17:32:00.310Z,100578.66
2023-01-11T17:34:32.958Z,100575.72
2023-01-11T17:37:02.091Z,100575.88
2023-01-11T17:39:35.345Z,100587.28
2023-01-11T17:42:25.504Z,100595.09
2023-01-11T17:45:15.242Z,100597.34
2023-01-11T17:47:47.272Z,100587.16
2023-01-11T17:50:23.501Z,100586.19
2023-01-11T17:52:55.151Z,100590.09
2023-01-11T17:55:25.922Z,100605.97
2023-01-11T17:58:22.711Z,100602.22
2023-01-11T18:01:18.280Z,100611.00
2023-01-11T18:03:50.485Z,100606.53
2023-01-11T18:06:30.398Z,100616.56
2023-01-11T18:09:00.553Z,100628.00
2023-01-11T18:11:32.764Z,100631.63
2023-01-11T18:14:05.395Z,100636.09
2023-01-11T18:16:35.424Z,100629.13
2023-01-11T18:19:24.767Z,100641.38
2023-01-11T18:21:55.192Z,100646.41
2023-01-11T18:24:53.802Z,100648.91
2023-01-11T18:27:30.623Z,100639.97
2023-01-11T18:30:02.604Z,100645.13
2023-01-11T18:32:35.519Z,100648.88
2023-01-11T18:35:03.846Z,100649.44
2023-01-11T18:37:37.423Z,100665.53
2023-01-11T18:40:07.001Z,100663.25
2023-01-11T18:42:35.742Z,100666.19
2023-01-11T18:45:04.339Z,100666.38
2023-01-11T18:47:32.859Z,100669.97
2023-01-11T18:50:01.323Z,100673.28
2023-01-11T18:52:29.652Z,100678.72
2023-01-11T18:55:02.404Z,100669.81
2023-01-11T18:57:30.720Z,100665.34
2023-01-11T19:00:00.711Z,100666.72
2023-01-11T19:02:30.515Z,100664.75
2023-01-11T19:04:58.616Z,100664.22
2023-01-11T19:07:27.571Z,100677.16
2023-01-11T19:10:16.522Z,100678.69
2023-01-11T19:12:44.702Z,100684.56
2023-01-11T19:15:13.858Z,100694.88
2023-01-11T19:17:42.389Z,100697.13
2023-01-11T19:20:13.365Z,100706.56
2023-01-11T19:22:44.310Z,100695.69
2023-01-11T19:25:12.337Z,100708.81
2023-01-11T19:27:42.184Z,100715.22
2023-01-11T19:30:12.633Z,100712.56
2023-01-11T19:32:40.979Z,100713.78
2023-01-11T19:35:09.795Z,100719.34
2023-01-11T19:37:38.842Z,100717.53
2023-01-11T19:40:09.670Z,100722.44
2023-01-11T19:42:38.267Z,100723.09
2023-01-11T19:45:09.133Z,100718.38
2023-01-11T19:47:37.540Z,100714.91
2023-01-11T19:50:06.365Z,100721.03
2023-01-11T19:52:48.183Z,100730.78
2023-01-11T19:55:17.902Z,100733.56
2023-01-11T19:57:46.687Z,100739.13
2023-01-11T20:00:18.400Z,100740.25
2023-01-11T20:02:46.663Z,100737.72
2023-01-11T20:05:14.647Z,100739.69
2023-01-11T20:07:43.031Z,100748.41
2023-01-11T20:10:11.883Z,100745.88
2023-01-11T20:12:39.954Z,100753.56
2023-01-11T20:15:09.815Z,100756.34
2023-01-11T20:17:39.958Z,100758.28
2023-01-11T20:20:09.542Z,100762.19
2023-01-11T20:22:37.883Z,100771.47
2023-01-11T20:25:08.337Z,100773.53
2023-01-11T20:27:37.495Z,100766.91
2023-01-11T20:30:05.928Z,100759.47
2023-01-11T20:32:41.509Z,100757.41
2023-01-11T20:35:11.979Z,100756.97
2023-01-11T20:37:40.031Z,100769.34
2023-01-11T20:40:09.163Z,100769.47
2023-01-11T20:42:38.104Z,100769.63
2023-01-11T20:45:10.547Z,100768.34
2023-01-11T20:47:39.430Z,100771.00
2023-01-11T20:50:08.716Z,100774.00
2023-01-11T20:52:38.802Z,100772.19
2023-01-11T20:55:07.890Z,100778.31
2023-01-11T20:57:36.537Z,100780.41
2023-01-11T21:00:07.623Z,100783.75
2023-01-11T21:02:36.016Z,100782.06
2023-01-11T21:05:04.501Z,100786.91
2023-01-11T21:07:33.212Z,100786.78
2023-01-11T21:10:03.830Z,100777.84
2023-01-11T21:15:04.905Z,100777.84
2023-01-11T21:17:33.073Z,100776.41
2023-01-11T21:20:02.240Z,100774.94
2023-01-11T21:22:30.149Z,100773.63
2023-01-11T21:24:58.390Z,100776.47
2023-01-11T21:27:29.138Z,100773.63
2023-01-11T21:29:59.115Z,100773.06
2023-01-11T21:32:27.460Z,100774.16
2023-01-11T21:34:56.762Z,100773.88
2023-01-11T21:37:25.700Z,100783.44
2023-01-11T21:39:55.156Z,100771.13
2023-01-11T21:42:23.175Z,100782.22
2023-01-11T21:44:54.389Z,100780.41
2023-01-11T21:47:22.741Z,100781.69
2023-01-11T21:49:51.048Z,100775.19
2023-01-11T21:52:19.546Z,100770.34
2023-01-11T21:54:48.483Z,100775.63
2023-01-11T21:57:17.539Z,100781.47
2023-01-11T21:59:46.050Z,100791.06
2023-01-11T22:02:15.777Z,100790.59
2023-01-11T22:04:44.151Z,100804.78
2023-01-11T22:07:14.393Z,100801.69
2023-01-11T22:09:53.413Z,100799.31
2023-01-11T22:12:31.961Z,100802.59
2023-01-11T22:14:59.883Z,100796.41
2023-01-11T22:17:29.261Z,100787.19
2023-01-11T22:19:57.593Z,100785.69
2023-01-11T22:22:28.325Z,100778.88
2023-01-11T22:24:56.363Z,100777.44
2023-01-11T22:27:25.251Z,100782.97
2023-01-11T22:29:54.822Z,100786.00
2023-01-11T22:32:22.730Z,100787.63
2023-01-11T22:34:52.778Z,100787.63
2023-01-11T22:37:20.907Z,100782.81
2023-01-11T22:39:49.911Z,100786.69
2023-01-11T22:42:18.350Z,100788.19
2023-01-11T22:44:46.663Z,100789.34
2023-01-11T22:47:16.176Z,100792.25
2023-01-11T22:49:44.377Z,100789.75
2023-01-11T22:52:13.772Z,100800.19
2023-01-11T22:54:42.544Z,100797.44
2023-01-11T22:57:12.173Z,100792.28
2023-01-11T22:59:40.389Z,100798.53
2023-01-11T23:02:08.486Z,100798.19
2023-01-11T23:04:37.531Z,100792.31
2023-01-11T23:07:05.739Z,100787.41
2023-01-11T23:09:35.477Z,100794.25
2023-01-11T23:12:21.009Z,100794.34
2023-01-11T23:14:49.060Z,100798.34
2023-01-11T23:17:18.936Z,100787.91
2023-01-11T23:19:48.811Z,100793.06
2023-01-11T23:22:17.506Z,100800.06
2023-01-11T23:24:47.054Z,100792.16
2023-01-11T23:27:20.392Z,100785.16
2023-01-11T23:29:49.361Z,100793.06
2023-01-11T23:32:17.514Z,100793.84
2023-01-11T23:34:46.730Z,100788.56
2023-01-11T23:37:15.954Z,100785.22
2023-01-11T23:39:46.802Z,100782.19
2023-01-11T23:42:27.529Z,100786.41
2023-01-11T23:44:56.146Z,100782.94
2023-01-11T23:47:25.325Z,100782.69
2023-01-11T23:49:56.129Z,100777.53
2023-01-11T23:52:25.485Z,100770.84
2023-01-11T23:54:53.678Z,100774.91
2023-01-11T23:57:24.028Z,100760.03
2023-01-11T23:59:53.272Z,100753.53
